Time;durP1;ratioP1;P1;durP2;ratioP2;P2;SDS_P1;SDS_P2;PMS_P1;PMS_P2;Temp;Humidity;BMP_temperature;BMP_pressure;BME280_temperature;BME280_humidity;BME280_pressure;Samples;Min_cycle;Max_cycle;Signal;HPM_P1;HPM_P2
2022/03/01 00:00:33;;;;;;;35.53;18.20;;;;;;;;;;4851707;29;20125;-75
2022/03/01 00:02:59;;;;;;;33.70;19.45;;;;;;;;;;4855118;29;20037;-75
2022/03/01 00:05:25;;;;;;;39.33;19.20;;;;;;;;;;4858768;29;20034;-75
2022/03/01 00:07:51;;;;;;;37.00;19.42;;;;;;;;;;4850989;29;20108;-75
2022/03/01 00:10:17;;;;;;;30.90;17.55;;;;;;;;;;4858256;29;20165;-75
2022/03/01 00:12:43;;;;;;;34.15;17.63;;;;;;;;;;4858164;29;20046;-75
2022/03/01 00:15:09;;;;;;;29.75;15.75;;;;;;;;;;4858278;29;20048;-76
2022/03/01 00:17:35;;;;;;;28.45;14.43;;;;;;;;;;4855447;29;20132;-75
2022/03/01 00:20:02;;;;;;;26.20;13.68;;;;;;;;;;4840409;29;20117;-75
2022/03/01 00:22:28;;;;;;;24.23;12.85;;;;;;;;;;4839666;29;20038;-75
2022/03/01 00:24:53;;;;;;;25.08;13.38;;;;;;;;;;4849021;29;20036;-75
2022/03/01 00:27:19;;;;;;;27.42;14.32;;;;;;;;;;4858818;29;20082;-75
2022/03/01 00:29:45;;;;;;;26.25;14.45;;;;;;;;;;4850995;29;20034;-75
2022/03/01 00:32:11;;;;;;;31.80;17.17;;;;;;;;;;4839751;29;20038;-75
2022/03/01 00:34:38;;;;;;;30.30;16.23;;;;;;;;;;4853310;29;20045;-75
2022/03/01 00:37:04;;;;;;;31.42;17.17;;;;;;;;;;4856776;29;20037;-75
2022/03/01 00:39:30;;;;;;;34.10;17.58;;;;;;;;;;4858255;29;20156;-75
2022/03/01 00:41:56;;;;;;;36.25;16.80;;;;;;;;;;4857973;29;20045;-75
2022/03/01 00:44:22;;;;;;;27.42;15.25;;;;;;;;;;4857909;29;20046;-75
2022/03/01 00:46:48;;;;;;;29.80;14.73;;;;;;;;;;4845643;29;20083;-77
2022/03/01 00:49:14;;;;;;;33.30;15.23;;;;;;;;;;4842880;29;20033;-75
2022/03/01 00:51:41;;;;;;;30.13;15.80;;;;;;;;;;4847801;29;20042;-75
2022/03/01 00:54:07;;;;;;;31.65;15.90;;;;;;;;;;4847378;29;20487;-75
2022/03/01 00:56:34;;;;;;;26.15;14.35;;;;;;;;;;4856828;29;20113;-75
2022/03/01 00:59:00;;;;;;;31.10;15.32;;;;;;;;;;4857687;29;20827;-77
2022/03/01 01:01:26;;;;;;;29.08;14.45;;;;;;;;;;4856584;29;20137;-75
2022/03/01 01:03:52;;;;;;;25.30;11.90;;;;;;;;;;4853489;29;20037;-75
2022/03/01 01:06:19;;;;;;;30.65;16.33;;;;;;;;;;4853072;29;20045;-75
2022/03/01 01:08:45;;;;;;;27.85;12.77;;;;;;;;;;4856710;29;20036;-75
2022/03/01 01:11:11;;;;;;;26.13;13.27;;;;;;;;;;4857828;29;20041;-78
2022/03/01 01:13:37;;;;;;;25.27;12.88;;;;;;;;;;4857341;29;20037;-77
2022/03/01 01:16:03;;;;;;;27.45;13.35;;;;;;;;;;4841190;29;20088;-77
2022/03/01 01:18:29;;;;;;;31.42;13.90;;;;;;;;;;4857705;29;20882;-77
2022/03/01 01:20:55;;;;;;;29.20;13.45;;;;;;;;;;4857349;29;20071;-77
2022/03/01 01:23:21;;;;;;;24.42;12.30;;;;;;;;;;4857606;29;20029;-77
2022/03/01 01:25:48;;;;;;;22.98;11.43;;;;;;;;;;4856839;29;20055;-77
2022/03/01 01:28:14;;;;;;;20.35;10.68;;;;;;;;;;4857657;29;20038;-77
2022/03/01 01:30:40;;;;;;;25.58;11.82;;;;;;;;;;4857338;29;20040;-77
2022/03/01 01:33:06;;;;;;;24.67;10.63;;;;;;;;;;4854705;29;20045;-77
2022/03/01 01:35:33;;;;;;;21.13;10.07;;;;;;;;;;4857618;29;20044;-77
2022/03/01 01:38:00;;;;;;;21.65;10.85;;;;;;;;;;4855357;29;20086;-77
2022/03/01 01:40:28;;;;;;;22.30;10.40;;;;;;;;;;4857775;29;20480;-77
2022/03/01 01:42:54;;;;;;;18.48;9.43;;;;;;;;;;4857808;29;20037;-77
2022/03/01 01:45:21;;;;;;;22.05;10.50;;;;;;;;;;4857600;29;20030;-77
2022/03/01 01:47:48;;;;;;;20.42;9.73;;;;;;;;;;4846690;29;20499;-77
2022/03/01 01:50:15;;;;;;;22.50;10.55;;;;;;;;;;4839305;29;20049;-77
2022/03/01 01:52:41;;;;;;;18.80;10.15;;;;;;;;;;4854856;29;20036;-77
2022/03/01 01:55:07;;;;;;;17.92;8.10;;;;;;;;;;4857675;29;20048;-77
2022/03/01 01:57:33;;;;;;;20.98;8.75;;;;;;;;;;4854867;29;20556;-77
2022/03/01 02:00:00;;;;;;;21.48;8.98;;;;;;;;;;4846884;29;20046;-77
2022/03/01 02:02:27;;;;;;;19.95;9.43;;;;;;;;;;4857514;29;20033;-77
2022/03/01 02:04:53;;;;;;;18.88;9.00;;;;;;;;;;4857300;29;20044;-77
2022/03/01 02:07:20;;;;;;;18.10;9.07;;;;;;;;;;4857956;29;20078;-77
2022/03/01 02:09:46;;;;;;;20.50;9.82;;;;;;;;;;4857539;29;20061;-77
2022/03/01 02:12:12;;;;;;;20.75;9.02;;;;;;;;;;4857830;29;20522;-77
2022/03/01 02:14:39;;;;;;;19.00;9.25;;;;;;;;;;4859815;29;20037;-77
2022/03/01 02:17:06;;;;;;;18.42;9.32;;;;;;;;;;4860618;29;20070;-77
2022/03/01 02:19:33;;;;;;;19.20;8.98;;;;;;;;;;4860694;29;20380;-77
2022/03/01 02:21:59;;;;;;;18.67;7.82;;;;;;;;;;4860925;29;20041;-77
2022/03/01 02:24:26;;;;;;;16.08;8.52;;;;;;;;;;4860314;29;20093;-77
2022/03/01 02:27:11;;;;;;;18.38;8.50;;;;;;;;;;4861108;29;20059;-76
2022/03/01 02:29:37;;;;;;;16.38;8.60;;;;;;;;;;4847636;29;20034;-77
2022/03/01 02:32:08;;;;;;;16.60;8.60;;;;;;;;;;4846900;29;20520;-77
2022/03/01 02:34:34;;;;;;;18.48;7.53;;;;;;;;;;4858735;29;20518;-77
2022/03/01 02:37:00;;;;;;;19.17;7.65;;;;;;;;;;4859473;29;20093;-77
2022/03/01 02:39:26;;;;;;;15.82;7.80;;;;;;;;;;4860265;29;20038;-77
2022/03/01 02:41:52;;;;;;;15.50;8.23;;;;;;;;;;4860816;29;20045;-77
2022/03/01 02:44:18;;;;;;;17.33;8.75;;;;;;;;;;4859745;29;20120;-77
2022/03/01 02:46:44;;;;;;;17.23;7.43;;;;;;;;;;4860499;29;20467;-77
2022/03/01 02:49:10;;;;;;;13.63;6.47;;;;;;;;;;4856610;29;20422;-77
2022/03/01 02:51:37;;;;;;;14.27;7.07;;;;;;;;;;4859214;29;20513;-77
2022/03/01 02:54:03;;;;;;;16.20;7.40;;;;;;;;;;4859744;29;20072;-77
2022/03/01 02:56:30;;;;;;;14.82;6.70;;;;;;;;;;4841931;29;20038;-77
2022/03/01 02:58:56;;;;;;;16.15;6.28;;;;;;;;;;4841776;29;20064;-77
2022/03/01 03:01:25;;;;;;;17.10;6.20;;;;;;;;;;4847021;29;20077;-77
2022/03/01 03:03:51;;;;;;;14.65;6.15;;;;;;;;;;4859925;29;20059;-77
2022/03/01 03:06:17;;;;;;;15.93;6.30;;;;;;;;;;4859668;29;20037;-77
2022/03/01 03:08:44;;;;;;;18.10;7.05;;;;;;;;;;4859821;29;20038;-77
2022/03/01 03:11:10;;;;;;;16.98;8.00;;;;;;;;;;4859285;29;20120;-77
2022/03/01 03:13:36;;;;;;;17.50;7.07;;;;;;;;;;4860032;29;20042;-77
2022/03/01 03:16:03;;;;;;;17.00;7.43;;;;;;;;;;4859512;29;20901;-76
2022/03/01 03:18:29;;;;;;;15.95;6.35;;;;;;;;;;4860002;29;20422;-77
2022/03/01 03:20:55;;;;;;;20.88;9.18;;;;;;;;;;4854888;29;20036;-77
2022/03/01 03:23:21;;;;;;;25.98;10.27;;;;;;;;;;4860046;29;20044;-77
2022/03/01 03:25:48;;;;;;;24.02;11.27;;;;;;;;;;4853818;29;20030;-77
2022/03/01 03:28:14;;;;;;;24.65;12.85;;;;;;;;;;4859628;29;20048;-77
2022/03/01 03:30:40;;;;;;;26.00;13.18;;;;;;;;;;4855785;29;20116;-77
2022/03/01 03:33:06;;;;;;;26.17;12.63;;;;;;;;;;4851990;29;20034;-77
2022/03/01 03:35:32;;;;;;;25.95;12.63;;;;;;;;;;4842130;29;20065;-77
2022/03/01 03:37:58;;;;;;;24.52;12.10;;;;;;;;;;4860181;29;20073;-77
2022/03/01 03:40:24;;;;;;;21.45;10.95;;;;;;;;;;4859192;29;20046;-77
2022/03/01 03:42:50;;;;;;;19.05;9.80;;;;;;;;;;4859734;29;20033;-77
2022/03/01 03:45:18;;;;;;;20.83;10.07;;;;;;;;;;4859634;29;20149;-77
2022/03/01 03:47:44;;;;;;;18.67;10.40;;;;;;;;;;4858990;29;20040;-77
2022/03/01 03:50:10;;;;;;;21.25;10.18;;;;;;;;;;4859346;29;20494;-77
2022/03/01 03:52:38;;;;;;;19.52;9.55;;;;;;;;;;4859024;29;20085;-77
2022/03/01 03:55:05;;;;;;;19.88;9.23;;;;;;;;;;4859115;29;20121;-77
2022/03/01 03:57:32;;;;;;;19.27;9.25;;;;;;;;;;4858895;29;20838;-77
2022/03/01 03:59:58;;;;;;;20.30;9.55;;;;;;;;;;4859232;29;20112;-77
2022/03/01 04:02:24;;;;;;;21.42;9.40;;;;;;;;;;4858297;29;20033;-77
2022/03/01 04:04:50;;;;;;;17.67;8.93;;;;;;;;;;4859062;29;20082;-77
2022/03/01 04:07:16;;;;;;;17.58;8.32;;;;;;;;;;4853065;29;20393;-77
2022/03/01 04:09:42;;;;;;;19.75;9.20;;;;;;;;;;4857518;29;20034;-77
2022/03/01 04:12:08;;;;;;;18.25;8.45;;;;;;;;;;4855426;29;20038;-77
2022/03/01 04:14:35;;;;;;;19.63;8.07;;;;;;;;;;4858601;29;20452;-77
2022/03/01 04:17:01;;;;;;;18.30;9.20;;;;;;;;;;4858507;29;20048;-77
2022/03/01 04:19:27;;;;;;;19.23;9.10;;;;;;;;;;4858737;29;20399;-77
2022/03/01 04:21:53;;;;;;;20.17;8.45;;;;;;;;;;4858907;29;20045;-77
2022/03/01 04:24:19;;;;;;;16.75;8.48;;;;;;;;;;4841273;29;20045;-77
2022/03/01 04:26:45;;;;;;;17.60;7.20;;;;;;;;;;4840459;29;20038;-77
2022/03/01 04:29:11;;;;;;;18.95;7.13;;;;;;;;;;4854570;29;20036;-77
2022/03/01 04:31:37;;;;;;;21.45;8.38;;;;;;;;;;4858792;29;20041;-77
2022/03/01 04:34:03;;;;;;;18.17;7.93;;;;;;;;;;4857887;29;20048;-76
2022/03/01 04:36:29;;;;;;;19.88;8.30;;;;;;;;;;4858362;29;20041;-77
2022/03/01 04:38:55;;;;;;;17.02;8.93;;;;;;;;;;4858190;29;20034;-77
2022/03/01 04:41:21;;;;;;;19.80;10.02;;;;;;;;;;4858518;29;20365;-77
2022/03/01 04:43:47;;;;;;;19.50;9.13;;;;;;;;;;4853940;29;20034;-77
2022/03/01 04:46:15;;;;;;;19.20;9.88;;;;;;;;;;4858185;29;20136;-77
2022/03/01 04:48:41;;;;;;;18.05;10.20;;;;;;;;;;4852483;29;20037;-77
2022/03/01 04:51:07;;;;;;;19.55;10.40;;;;;;;;;;4852821;29;20124;-77
2022/03/01 04:53:33;;;;;;;20.55;9.70;;;;;;;;;;4856417;29;20936;-77
2022/03/01 04:55:59;;;;;;;19.13;9.27;;;;;;;;;;4856344;29;20037;-77
2022/03/01 04:58:25;;;;;;;17.23;9.68;;;;;;;;;;4858444;29;20068;-77
2022/03/01 05:00:54;;;;;;;19.58;9.50;;;;;;;;;;4858060;29;20041;-77
2022/03/01 05:03:20;;;;;;;18.45;8.98;;;;;;;;;;4858303;29;20044;-77
2022/03/01 05:05:46;;;;;;;25.10;12.15;;;;;;;;;;4857826;29;20056;-77
2022/03/01 05:08:12;;;;;;;19.55;9.48;;;;;;;;;;4858153;29;20072;-77
2022/03/01 05:10:39;;;;;;;24.05;11.43;;;;;;;;;;4857685;29;20043;-77
2022/03/01 05:13:05;;;;;;;32.65;12.63;;;;;;;;;;4858786;29;20037;-77
2022/03/01 05:15:31;;;;;;;24.45;10.93;;;;;;;;;;4846923;29;20099;-77
2022/03/01 05:17:58;;;;;;;22.80;10.52;;;;;;;;;;4857286;29;20034;-77
2022/03/01 05:20:25;;;;;;;20.25;9.65;;;;;;;;;;4855432;29;20069;-77
2022/03/01 05:22:52;;;;;;;19.77;9.05;;;;;;;;;;4859295;29;20105;-77
2022/03/01 05:25:19;;;;;;;20.30;10.00;;;;;;;;;;4857904;29;20037;-77
2022/03/01 05:27:45;;;;;;;18.30;9.20;;;;;;;;;;4858580;29;20041;-77
2022/03/01 05:30:13;;;;;;;20.02;9.13;;;;;;;;;;4852596;29;20153;-77
2022/03/01 05:32:40;;;;;;;21.15;9.65;;;;;;;;;;4846029;29;20041;-77
2022/03/01 05:35:10;;;;;;;14.75;8.10;;;;;;;;;;4857189;29;20033;-77
2022/03/01 05:37:36;;;;;;;17.98;9.25;;;;;;;;;;4858138;29;20076;-77
2022/03/01 05:40:03;;;;;;;24.40;10.07;;;;;;;;;;4857477;29;20045;-77
2022/03/01 05:42:29;;;;;;;23.40;10.07;;;;;;;;;;4858167;29;20086;-77
2022/03/01 05:44:55;;;;;;;22.27;10.57;;;;;;;;;;4853440;29;20441;-77
2022/03/01 05:47:22;;;;;;;20.00;9.73;;;;;;;;;;4839503;29;20040;-77
2022/03/01 05:49:47;;;;;;;23.52;11.38;;;;;;;;;;4843597;29;20108;-77
2022/03/01 05:52:14;;;;;;;22.70;11.63;;;;;;;;;;4861736;29;20120;-77
2022/03/01 05:54:40;;;;;;;20.92;10.88;;;;;;;;;;4861173;29;20116;-77
2022/03/01 05:57:06;;;;;;;24.35;9.80;;;;;;;;;;4860748;29;20052;-77
2022/03/01 05:59:32;;;;;;;18.65;9.57;;;;;;;;;;4861079;29;20081;-77
2022/03/01 06:01:58;;;;;;;25.95;11.48;;;;;;;;;;4852760;29;20102;-77
2022/03/01 06:04:24;;;;;;;30.55;15.05;;;;;;;;;;4852877;29;20081;-77
2022/03/01 06:06:50;;;;;;;25.45;11.77;;;;;;;;;;4855653;29;20360;-77
2022/03/01 06:09:16;;;;;;;27.27;13.23;;;;;;;;;;4860973;29;20036;-77
2022/03/01 06:11:42;;;;;;;24.23;13.00;;;;;;;;;;4859810;29;20065;-77
2022/03/01 06:14:08;;;;;;;37.85;17.05;;;;;;;;;;4861214;29;20068;-77
2022/03/01 06:16:34;;;;;;;31.52;16.05;;;;;;;;;;4856503;29;20036;-76
2022/03/01 06:19:01;;;;;;;28.02;14.63;;;;;;;;;;4853032;29;20034;-76
2022/03/01 06:21:27;;;;;;;26.65;13.38;;;;;;;;;;4854646;29;20068;-76
2022/03/01 06:23:53;;;;;;;30.40;13.85;;;;;;;;;;4861204;29;20429;-76
2022/03/01 06:26:19;;;;;;;25.48;11.90;;;;;;;;;;4860366;29;20121;-77
2022/03/01 06:28:45;;;;;;;25.30;12.23;;;;;;;;;;4860668;29;20438;-77
2022/03/01 06:31:11;;;;;;;24.20;11.75;;;;;;;;;;4857951;29;20051;-76
2022/03/01 06:33:37;;;;;;;25.23;12.57;;;;;;;;;;4859721;29;20092;-76
2022/03/01 06:36:03;;;;;;;25.40;13.07;;;;;;;;;;4853548;29;20481;-76
2022/03/01 06:38:29;;;;;;;28.92;12.65;;;;;;;;;;4856108;29;20040;-76
2022/03/01 06:40:56;;;;;;;25.92;12.85;;;;;;;;;;4856519;29;20633;-76
2022/03/01 06:43:25;;;;;;;32.90;14.10;;;;;;;;;;4859976;29;20040;-76
2022/03/01 06:45:51;;;;;;;33.92;13.63;;;;;;;;;;4849398;29;20026;-76
2022/03/01 06:48:17;;;;;;;32.20;15.43;;;;;;;;;;4867570;29;20124;-76
2022/03/01 06:50:44;;;;;;;27.17;13.18;;;;;;;;;;4863822;29;20049;-76
2022/03/01 06:53:11;;;;;;;30.65;14.43;;;;;;;;;;4856380;29;20049;-77
2022/03/01 06:55:37;;;;;;;32.80;14.88;;;;;;;;;;4863858;29;20033;-77
2022/03/01 06:58:03;;;;;;;31.13;13.73;;;;;;;;;;4857376;29;20065;-77
2022/03/01 07:00:29;;;;;;;34.72;15.88;;;;;;;;;;4844049;29;20081;-76
2022/03/01 07:02:55;;;;;;;33.55;17.35;;;;;;;;;;4864094;29;20034;-76
2022/03/01 07:05:21;;;;;;;38.83;15.45;;;;;;;;;;4874916;29;20123;-76
2022/03/01 07:07:48;;;;;;;34.97;14.20;;;;;;;;;;4863874;29;20036;-77
2022/03/01 07:10:15;;;;;;;29.15;15.32;;;;;;;;;;4859775;29;20095;-76
2022/03/01 07:12:41;;;;;;;31.65;14.90;;;;;;;;;;4875936;29;20029;-77
2022/03/01 07:15:08;;;;;;;32.97;15.50;;;;;;;;;;4859291;29;20038;-77
2022/03/01 07:17:34;;;;;;;32.22;16.15;;;;;;;;;;4859678;29;20061;-76
2022/03/01 07:20:00;;;;;;;34.38;15.98;;;;;;;;;;4859098;29;20049;-77
2022/03/01 07:22:26;;;;;;;40.45;17.35;;;;;;;;;;4868798;29;20041;-77
2022/03/01 07:24:52;;;;;;;46.35;17.75;;;;;;;;;;4867715;29;20086;-76
2022/03/01 07:27:18;;;;;;;35.92;15.90;;;;;;;;;;4870203;29;20038;-76
2022/03/01 07:29:44;;;;;;;32.35;15.40;;;;;;;;;;4855476;29;20106;-76
2022/03/01 07:32:10;;;;;;;34.13;16.83;;;;;;;;;;4859340;29;20465;-76
2022/03/01 07:34:37;;;;;;;31.95;15.60;;;;;;;;;;4858344;29;20392;-77
2022/03/01 07:37:04;;;;;;;35.17;16.27;;;;;;;;;;4854183;29;20042;-76
2022/03/01 07:39:30;;;;;;;37.80;16.92;;;;;;;;;;4857013;29;20061;-76
2022/03/01 07:41:56;;;;;;;29.33;14.85;;;;;;;;;;4855859;29;20029;-77
2022/03/01 07:44:22;;;;;;;27.45;15.05;;;;;;;;;;4865621;29;20045;-76
2022/03/01 07:46:49;;;;;;;40.33;17.45;;;;;;;;;;4841218;29;20128;-77
2022/03/01 07:49:15;;;;;;;35.47;19.10;;;;;;;;;;4841753;29;20034;-77
2022/03/01 07:51:41;;;;;;;40.80;16.95;;;;;;;;;;4851000;29;20030;-76
2022/03/01 07:54:07;;;;;;;37.78;18.60;;;;;;;;;;4865504;29;20494;-77
2022/03/01 07:56:33;;;;;;;39.00;17.20;;;;;;;;;;4863437;29;20103;-76
2022/03/01 07:58:59;;;;;;;34.28;14.15;;;;;;;;;;4854027;29;20392;-77
2022/03/01 08:01:26;;;;;;;41.00;16.40;;;;;;;;;;4868793;29;20045;-77
2022/03/01 08:03:52;;;;;;;41.30;16.88;;;;;;;;;;4858115;29;20148;-76
2022/03/01 08:06:18;;;;;;;35.00;15.15;;;;;;;;;;4857581;29;20915;-76
2022/03/01 08:08:44;;;;;;;37.85;18.23;;;;;;;;;;4841897;29;20475;-77
2022/03/01 08:11:11;;;;;;;27.17;15.10;;;;;;;;;;4857930;29;20045;-77
2022/03/01 08:13:37;;;;;;;37.10;14.25;;;;;;;;;;4858368;29;20042;-77
2022/03/01 08:16:04;;;;;;;32.80;15.75;;;;;;;;;;4855249;29;20870;-76
2022/03/01 08:18:30;;;;;;;25.15;12.63;;;;;;;;;;4857969;29;20179;-76
2022/03/01 08:20:57;;;;;;;30.48;13.40;;;;;;;;;;4854026;29;20041;-77
2022/03/01 08:23:24;;;;;;;30.35;12.75;;;;;;;;;;4840119;29;20061;-76
2022/03/01 08:25:50;;;;;;;28.85;14.23;;;;;;;;;;4844466;29;20061;-76
2022/03/01 08:28:16;;;;;;;34.78;16.13;;;;;;;;;;4859193;29;20065;-76
2022/03/01 08:30:42;;;;;;;27.77;14.68;;;;;;;;;;4856456;29;20108;-77
2022/03/01 08:33:08;;;;;;;34.10;14.18;;;;;;;;;;4851642;29;20045;-77
2022/03/01 08:35:34;;;;;;;30.98;13.05;;;;;;;;;;4856492;29;20037;-76
2022/03/01 08:38:04;;;;;;;27.20;14.20;;;;;;;;;;4857435;29;20038;-77
2022/03/01 08:40:35;;;;;;;22.70;11.73;;;;;;;;;;4857792;29;20069;-77
2022/03/01 08:43:01;;;;;;;39.15;12.98;;;;;;;;;;4843361;29;20601;-76
2022/03/01 08:45:27;;;;;;;28.80;13.32;;;;;;;;;;4854381;29;20087;-77
2022/03/01 08:47:53;;;;;;;36.78;13.05;;;;;;;;;;4852833;29;20065;-76
2022/03/01 08:50:19;;;;;;;20.67;12.30;;;;;;;;;;4861683;29;20108;-76
2022/03/01 08:52:46;;;;;;;24.23;12.45;;;;;;;;;;4862289;29;20479;-77
2022/03/01 08:55:12;;;;;;;27.25;12.98;;;;;;;;;;4863825;29;20033;-76
2022/03/01 08:57:38;;;;;;;22.52;10.38;;;;;;;;;;4867049;29;20049;-76
2022/03/01 09:00:06;;;;;;;18.00;9.38;;;;;;;;;;4859569;29;20081;-77
2022/03/01 09:02:32;;;;;;;20.02;11.07;;;;;;;;;;4846861;29;20041;-77
2022/03/01 09:04:58;;;;;;;22.80;10.85;;;;;;;;;;4845747;29;20033;-76
2022/03/01 09:07:25;;;;;;;25.92;11.35;;;;;;;;;;4854307;29;20042;-76
2022/03/01 09:09:51;;;;;;;22.88;11.07;;;;;;;;;;4846841;29;20057;-76
2022/03/01 09:12:17;;;;;;;20.45;10.85;;;;;;;;;;4851992;29;20037;-76
2022/03/01 09:14:43;;;;;;;17.15;9.85;;;;;;;;;;4859846;29;20056;-76
2022/03/01 09:17:09;;;;;;;28.33;10.07;;;;;;;;;;4860701;29;20064;-74
2022/03/01 09:19:35;;;;;;;21.92;10.13;;;;;;;;;;4857819;29;20750;-76
2022/03/01 09:22:02;;;;;;;15.88;9.30;;;;;;;;;;4848901;29;20645;-77
2022/03/01 09:24:28;;;;;;;17.25;9.57;;;;;;;;;;4873824;29;20600;-73
2022/03/01 09:26:54;;;;;;;20.90;11.07;;;;;;;;;;4869823;29;20045;-76
2022/03/01 09:29:20;;;;;;;19.33;10.18;;;;;;;;;;4857323;29;20380;-76
2022/03/01 09:31:46;;;;;;;19.52;10.40;;;;;;;;;;4856251;29;20034;-76
2022/03/01 09:34:12;;;;;;;18.60;10.05;;;;;;;;;;4857265;29;20038;-76
2022/03/01 09:36:38;;;;;;;21.33;10.02;;;;;;;;;;4856509;29;20044;-73
2022/03/01 09:39:04;;;;;;;17.48;9.10;;;;;;;;;;4856827;29;20049;-73
2022/03/01 09:41:32;;;;;;;18.17;10.07;;;;;;;;;;4857134;29;20705;-76
2022/03/01 09:43:59;;;;;;;17.23;8.90;;;;;;;;;;4852046;29;20369;-74
2022/03/01 09:46:25;;;;;;;16.00;8.63;;;;;;;;;;4857025;29;20030;-73
2022/03/01 09:48:51;;;;;;;16.33;8.10;;;;;;;;;;4865602;29;20033;-74
2022/03/01 09:51:19;;;;;;;17.58;7.93;;;;;;;;;;4840248;29;20398;-73
2022/03/01 09:53:47;;;;;;;16.75;8.30;;;;;;;;;;4856666;29;20056;-73
2022/03/01 09:56:14;;;;;;;17.25;8.35;;;;;;;;;;4857204;29;20073;-73
2022/03/01 09:58:40;;;;;;;15.18;7.25;;;;;;;;;;4854320;29;20588;-73
2022/03/01 10:01:06;;;;;;;16.73;8.20;;;;;;;;;;4852858;29;20042;-73
2022/03/01 10:03:34;;;;;;;18.92;8.07;;;;;;;;;;4845793;29;20049;-73
2022/03/01 10:06:10;;;;;;;15.70;8.57;;;;;;;;;;4840086;29;20060;-73
2022/03/01 10:08:36;;;;;;;17.38;7.15;;;;;;;;;;4855052;29;20037;-73
2022/03/01 10:11:03;;;;;;;12.25;7.07;;;;;;;;;;4849423;29;20061;-74
2022/03/01 10:13:33;;;;;;;10.60;7.05;;;;;;;;;;4856774;29;20128;-73
2022/03/01 10:16:05;;;;;;;16.38;6.55;;;;;;;;;;4857088;29;20074;-73
2022/03/01 10:18:33;;;;;;;16.70;6.30;;;;;;;;;;4860460;29;20527;-73
2022/03/01 10:21:03;;;;;;;14.93;6.35;;;;;;;;;;4856710;29;20038;-73
2022/03/01 10:23:30;;;;;;;11.73;5.75;;;;;;;;;;4856806;29;20045;-73
2022/03/01 10:25:56;;;;;;;13.48;5.55;;;;;;;;;;4842222;29;20037;-74
2022/03/01 10:28:51;;;;;;;14.45;5.38;;;;;;;;;;4838406;29;20037;-74
2022/03/01 10:31:18;;;;;;;11.23;5.40;;;;;;;;;;4862487;29;20452;-74
2022/03/01 10:34:05;;;;;;;12.32;5.72;;;;;;;;;;4864072;29;20029;-73
2022/03/01 10:36:47;;;;;;;15.10;5.55;;;;;;;;;;4860080;29;20092;-74
2022/03/01 10:39:17;;;;;;;18.33;6.10;;;;;;;;;;4866987;29;20102;-73
2022/03/01 10:41:44;;;;;;;12.30;5.15;;;;;;;;;;4865046;29;20081;-74
2022/03/01 10:44:15;;;;;;;15.77;5.93;;;;;;;;;;4859506;29;20041;-74
2022/03/01 10:46:42;;;;;;;12.35;5.35;;;;;;;;;;4863073;29;20140;-74
2022/03/01 10:49:10;;;;;;;18.58;5.65;;;;;;;;;;4857742;29;20811;-74
2022/03/01 10:51:47;;;;;;;14.27;4.97;;;;;;;;;;4853425;29;20077;-74
2022/03/01 10:54:23;;;;;;;16.23;5.07;;;;;;;;;;4852622;29;20042;-74
2022/03/01 10:56:50;;;;;;;9.23;4.38;;;;;;;;;;4851108;29;20104;-74
2022/03/01 10:59:17;;;;;;;14.35;5.32;;;;;;;;;;4868301;29;20426;-74
2022/03/01 11:01:43;;;;;;;11.40;5.32;;;;;;;;;;4859364;29;20041;-74
2022/03/01 11:04:09;;;;;;;15.25;5.93;;;;;;;;;;4859512;29;20061;-74
2022/03/01 11:06:36;;;;;;;13.70;6.07;;;;;;;;;;4858890;29;20520;-74
2022/03/01 11:09:02;;;;;;;11.88;5.13;;;;;;;;;;4859383;29;20741;-74
2022/03/01 11:11:30;;;;;;;13.07;5.53;;;;;;;;;;4853760;29;20037;-74
2022/03/01 11:13:57;;;;;;;14.65;5.10;;;;;;;;;;4870674;29;20848;-74
2022/03/01 11:16:28;;;;;;;14.48;5.60;;;;;;;;;;4846445;29;20046;-74
2022/03/01 11:18:54;;;;;;;10.77;5.65;;;;;;;;;;4841365;29;20492;-74
2022/03/01 11:21:21;;;;;;;13.10;5.65;;;;;;;;;;4852316;29;20041;-74
2022/03/01 11:23:48;;;;;;;14.75;5.68;;;;;;;;;;4859104;29;20033;-74
2022/03/01 11:26:15;;;;;;;16.02;6.28;;;;;;;;;;4858698;29;20082;-74
2022/03/01 11:28:51;;;;;;;24.90;6.80;;;;;;;;;;4859219;29;20033;-74
2022/03/01 11:31:21;;;;;;;12.20;5.65;;;;;;;;;;4859101;29;20051;-74
2022/03/01 11:33:57;;;;;;;13.88;6.30;;;;;;;;;;4862771;29;20479;-74
2022/03/01 11:36:25;;;;;;;15.57;6.97;;;;;;;;;;4855972;29;20049;-74
2022/03/01 11:38:51;;;;;;;11.77;6.75;;;;;;;;;;4872319;29;20392;-74
2022/03/01 11:41:23;;;;;;;13.02;6.13;;;;;;;;;;4857577;29;20442;-74
2022/03/01 11:43:57;;;;;;;18.30;6.50;;;;;;;;;;4844618;29;20033;-74
2022/03/01 11:46:23;;;;;;;11.82;5.38;;;;;;;;;;4857872;29;20045;-74
2022/03/01 11:48:55;;;;;;;14.65;5.82;;;;;;;;;;4871589;29;20456;-74
2022/03/01 11:51:34;;;;;;;16.60;5.55;;;;;;;;;;4859886;29;20072;-74
2022/03/01 11:54:08;;;;;;;13.27;5.90;;;;;;;;;;4864595;29;20472;-74
2022/03/01 11:56:35;;;;;;;13.63;5.97;;;;;;;;;;4854903;29;20810;-74
2022/03/01 11:59:19;;;;;;;14.48;6.38;;;;;;;;;;4858681;29;20073;-74
2022/03/01 12:01:46;;;;;;;10.82;5.68;;;;;;;;;;4854823;29;20809;-74
2022/03/01 12:04:12;;;;;;;13.90;6.55;;;;;;;;;;4870925;29;20040;-74
2022/03/01 12:06:39;;;;;;;18.60;6.25;;;;;;;;;;4870660;29;20825;-74
2022/03/01 12:09:07;;;;;;;14.23;6.90;;;;;;;;;;4853473;29;20038;-74
2022/03/01 12:11:38;;;;;;;14.93;7.38;;;;;;;;;;4848303;29;20037;-74
2022/03/01 12:14:09;;;;;;;12.90;6.80;;;;;;;;;;4863983;29;20858;-74
2022/03/01 12:16:36;;;;;;;11.57;7.20;;;;;;;;;;4857737;29;20064;-74
2022/03/01 12:19:15;;;;;;;17.00;7.60;;;;;;;;;;4857608;29;20158;-74
2022/03/01 12:21:48;;;;;;;12.65;7.72;;;;;;;;;;4863372;29;20041;-74
2022/03/01 12:24:14;;;;;;;14.70;6.63;;;;;;;;;;4862160;29;20030;-74
2022/03/01 12:26:45;;;;;;;12.75;7.20;;;;;;;;;;4847811;29;20059;-74
2022/03/01 12:29:12;;;;;;;15.20;6.93;;;;;;;;;;4850348;29;20120;-74
2022/03/01 12:31:38;;;;;;;15.85;7.50;;;;;;;;;;4857544;29;20038;-74
2022/03/01 12:34:05;;;;;;;15.80;6.88;;;;;;;;;;4844891;29;20042;-74
2022/03/01 12:36:33;;;;;;;14.32;7.85;;;;;;;;;;4857653;29;20045;-74
2022/03/01 12:39:19;;;;;;;26.00;7.78;;;;;;;;;;4862421;29;20053;-74
2022/03/01 12:41:46;;;;;;;14.25;7.82;;;;;;;;;;4850214;29;20093;-74
2022/03/01 12:44:13;;;;;;;16.70;8.07;;;;;;;;;;4856728;29;20036;-74
2022/03/01 12:46:40;;;;;;;15.05;7.50;;;;;;;;;;4857679;29;20037;-74
2022/03/01 12:49:07;;;;;;;14.60;7.38;;;;;;;;;;4857599;29;20547;-74
2022/03/01 12:51:33;;;;;;;13.68;7.10;;;;;;;;;;4857136;29;20036;-74
2022/03/01 12:53:59;;;;;;;11.52;6.97;;;;;;;;;;4865915;29;20112;-74
2022/03/01 12:56:32;;;;;;;13.35;7.20;;;;;;;;;;4858395;29;20574;-74
2022/03/01 12:59:06;;;;;;;16.70;7.18;;;;;;;;;;4857615;29;20437;-74
2022/03/01 13:01:33;;;;;;;17.45;7.57;;;;;;;;;;4859874;29;20045;-74
2022/03/01 13:03:59;;;;;;;16.35;7.18;;;;;;;;;;4857539;29;20357;-74
2022/03/01 13:06:26;;;;;;;13.65;7.53;;;;;;;;;;4856641;29;20049;-74
2022/03/01 13:08:54;;;;;;;13.65;7.32;;;;;;;;;;4872065;29;20025;-74
2022/03/01 13:11:20;;;;;;;12.43;7.22;;;;;;;;;;4860636;29;20044;-74
2022/03/01 13:13:49;;;;;;;13.02;7.10;;;;;;;;;;4859145;29;20034;-75
2022/03/01 13:16:20;;;;;;;16.58;8.43;;;;;;;;;;4849068;29;20783;-74
2022/03/01 13:18:46;;;;;;;11.75;6.85;;;;;;;;;;4864790;29;20029;-74
2022/03/01 13:21:12;;;;;;;13.85;7.40;;;;;;;;;;4861092;29;20041;-74
2022/03/01 13:23:38;;;;;;;16.73;7.45;;;;;;;;;;4859396;29;20045;-74
2022/03/01 13:26:04;;;;;;;15.50;7.38;;;;;;;;;;4854199;29;20042;-74
2022/03/01 13:28:31;;;;;;;14.13;8.43;;;;;;;;;;4867403;29;20041;-74
2022/03/01 13:30:57;;;;;;;13.65;7.45;;;;;;;;;;4856323;29;20049;-74
2022/03/01 13:33:27;;;;;;;13.63;7.57;;;;;;;;;;4859887;29;20041;-74
2022/03/01 13:35:53;;;;;;;13.90;7.82;;;;;;;;;;4838656;29;20046;-74
2022/03/01 13:38:19;;;;;;;14.52;7.80;;;;;;;;;;4854171;29;20788;-75
2022/03/01 13:40:46;;;;;;;13.60;7.95;;;;;;;;;;4857005;29;20042;-75
2022/03/01 13:43:12;;;;;;;15.98;8.65;;;;;;;;;;4846726;29;20041;-74
2022/03/01 13:45:40;;;;;;;16.15;8.80;;;;;;;;;;4850736;29;20029;-74
2022/03/01 13:48:16;;;;;;;16.58;8.45;;;;;;;;;;4856490;29;20116;-74
2022/03/01 13:50:43;;;;;;;14.65;8.60;;;;;;;;;;4859634;29;20061;-74
2022/03/01 13:53:10;;;;;;;21.00;10.95;;;;;;;;;;4857561;29;20722;-74
2022/03/01 13:55:37;;;;;;;16.25;9.98;;;;;;;;;;4857263;29;20076;-74
2022/03/01 13:58:04;;;;;;;17.60;9.07;;;;;;;;;;4857900;29;20133;-74
2022/03/01 14:00:33;;;;;;;16.58;9.32;;;;;;;;;;4859457;29;20044;-74
2022/03/01 14:03:00;;;;;;;18.23;10.73;;;;;;;;;;4847278;29;20765;-74
2022/03/01 14:05:27;;;;;;;20.13;9.85;;;;;;;;;;4856059;29;20033;-74
2022/03/01 14:08:12;;;;;;;14.93;10.35;;;;;;;;;;4857399;29;20037;-74
2022/03/01 14:10:41;;;;;;;17.52;9.57;;;;;;;;;;4868009;29;20603;-74
2022/03/01 14:13:08;;;;;;;18.30;8.98;;;;;;;;;;4842075;29;20037;-74
2022/03/01 14:15:39;;;;;;;16.83;9.82;;;;;;;;;;4861320;29;20099;-74
2022/03/01 14:18:06;;;;;;;17.25;10.45;;;;;;;;;;4846813;29;20038;-74
2022/03/01 14:20:32;;;;;;;17.40;10.32;;;;;;;;;;4857195;29;20038;-74
2022/03/01 14:22:59;;;;;;;19.15;10.60;;;;;;;;;;4855368;29;20037;-74